sensor_id;sensor_type;location;lat;lon;timestamp;pressure;altitude;pressure_sealevel;temperature;humidity
15260;BME280;34462;51.368;12.364;2022-12-07T00:01:43;18287.84;;;-141.84;89.16
15260;BME280;34462;51.368;12.364;2022-12-07T00:04:15;18287.84;;;-141.84;89.27
15260;BME280;34462;51.368;12.364;2022-12-07T00:06:46;18298.00;;;-141.84;89.25
15260;BME280;34462;51.368;12.364;2022-12-07T00:09:16;18300.03;;;-141.84;89.32
15260;BME280;34462;51.368;12.364;2022-12-07T00:11:49;18253.31;;;-141.84;89.07
15260;BME280;34462;51.368;12.364;2022-12-07T00:14:20;18283.78;;;-141.84;89.01
15260;BME280;34462;51.368;12.364;2022-12-07T00:16:50;18320.34;;;-141.84;88.38
15260;BME280;34462;51.368;12.364;2022-12-07T00:19:19;18300.03;;;-141.84;88.52
15260;BME280;34462;51.368;12.364;2022-12-07T00:21:47;18289.88;;;-141.84;89.15
15260;BME280;34462;51.368;12.364;2022-12-07T00:24:15;18285.81;;;-141.84;89.65
15260;BME280;34462;51.368;12.364;2022-12-07T00:26:43;18308.16;;;-141.84;90.20
15260;BME280;34462;51.368;12.364;2022-12-07T00:29:17;18261.44;;;-141.84;90.20
15260;BME280;34462;51.368;12.364;2022-12-07T00:31:47;18298.00;;;-141.84;90.19
15260;BME280;34462;51.368;12.364;2022-12-07T00:34:19;18302.06;;;-141.84;90.37
15260;BME280;34462;51.368;12.364;2022-12-07T00:36:48;18298.00;;;-141.84;90.17
15260;BME280;34462;51.368;12.364;2022-12-07T00:39:17;18273.63;;;-141.84;90.20
15260;BME280;34462;51.368;12.364;2022-12-07T00:41:45;18271.59;;;-141.84;90.14
15260;BME280;34462;51.368;12.364;2022-12-07T00:44:13;18295.97;;;-141.84;90.23
15260;BME280;34462;51.368;12.364;2022-12-07T00:46:41;18245.19;;;-141.84;90.37
15260;BME280;34462;51.368;12.364;2022-12-07T00:49:11;18269.56;;;-141.84;90.60
15260;BME280;34462;51.368;12.364;2022-12-07T00:51:39;18267.53;;;-141.84;90.34
15260;BME280;34462;51.368;12.364;2022-12-07T00:54:07;18273.63;;;-141.84;90.67
15260;BME280;34462;51.368;12.364;2022-12-07T00:56:37;18245.19;;;-141.84;90.80
15260;BME280;34462;51.368;12.364;2022-12-07T00:59:05;18263.47;;;-141.84;91.12
15260;BME280;34462;51.368;12.364;2022-12-07T01:01:35;18261.44;;;-141.84;91.33
15260;BME280;34462;51.368;12.364;2022-12-07T01:04:05;18241.13;;;-141.84;91.23
15260;BME280;34462;51.368;12.364;2022-12-07T01:06:35;18257.38;;;-141.84;91.40
15260;BME280;34462;51.368;12.364;2022-12-07T01:09:03;18237.06;;;-141.84;91.39
15260;BME280;34462;51.368;12.364;2022-12-07T01:11:33;18241.13;;;-141.84;91.67
15260;BME280;34462;51.368;12.364;2022-12-07T01:14:02;18247.22;;;-141.84;91.70
15260;BME280;34462;51.368;12.364;2022-12-07T01:16:32;18232.97;;;-141.84;91.80
15260;BME280;34462;51.368;12.364;2022-12-07T01:19:01;18224.84;;;-141.84;91.92
15260;BME280;34462;51.368;12.364;2022-12-07T01:21:35;18243.16;;;-141.84;91.84
15260;BME280;34462;51.368;12.364;2022-12-07T01:24:07;18257.38;;;-141.84;92.24
15260;BME280;34462;51.368;12.364;2022-12-07T01:26:37;18210.63;;;-141.84;91.57
15260;BME280;34462;51.368;12.364;2022-12-07T01:29:05;18255.34;;;-141.84;91.49
15260;BME280;34462;51.368;12.364;2022-12-07T01:31:33;18249.25;;;-141.84;91.41
15260;BME280;34462;51.368;12.364;2022-12-07T01:34:02;18232.97;;;-141.84;91.39
15260;BME280;34462;51.368;12.364;2022-12-07T01:36:32;18249.25;;;-141.84;91.55
15260;BME280;34462;51.368;12.364;2022-12-07T01:39:05;18237.06;;;-141.84;91.71
15260;BME280;34462;51.368;12.364;2022-12-07T01:41:37;18208.59;;;-141.84;91.39
15260;BME280;34462;51.368;12.364;2022-12-07T01:44:26;18245.19;;;-141.84;91.29
15260;BME280;34462;51.368;12.364;2022-12-07T01:46:58;18235.00;;;-141.84;91.25
15260;BME280;34462;51.368;12.364;2022-12-07T01:49:33;18216.72;;;-141.84;91.40
15260;BME280;34462;51.368;12.364;2022-12-07T01:52:14;18216.72;;;-141.84;91.17
15260;BME280;34462;51.368;12.364;2022-12-07T01:54:50;18249.25;;;-141.84;91.14
15260;BME280;34462;51.368;12.364;2022-12-07T01:57:20;18188.28;;;-141.84;91.20
15260;BME280;34462;51.368;12.364;2022-12-07T01:59:52;18198.44;;;-141.84;91.36
15260;BME280;34462;51.368;12.364;2022-12-07T02:02:27;18210.63;;;-141.84;91.44
15260;BME280;34462;51.368;12.364;2022-12-07T02:04:57;18194.38;;;-141.84;91.24
15260;BME280;34462;51.368;12.364;2022-12-07T02:07:28;18220.78;;;-141.84;91.12
15260;BME280;34462;51.368;12.364;2022-12-07T02:10:13;18232.97;;;-141.84;91.30
15260;BME280;34462;51.368;12.364;2022-12-07T02:12:42;18220.78;;;-141.84;91.39
15260;BME280;34462;51.368;12.364;2022-12-07T02:15:12;18241.13;;;-141.84;91.41
15260;BME280;34462;51.368;12.364;2022-12-07T02:17:51;18237.06;;;-141.84;91.45
15260;BME280;34462;51.368;12.364;2022-12-07T02:20:29;18186.25;;;-141.84;91.35
15260;BME280;34462;51.368;12.364;2022-12-07T02:23:45;18204.53;;;-141.84;91.14
15260;BME280;34462;51.368;12.364;2022-12-07T02:26:53;18218.75;;;-141.84;91.03
15260;BME280;34462;51.368;12.364;2022-12-07T02:29:36;18206.56;;;-141.84;90.95
15260;BME280;34462;51.368;12.364;2022-12-07T02:32:14;18206.56;;;-141.84;91.12
15260;BME280;34462;51.368;12.364;2022-12-07T02:34:49;18245.19;;;-141.84;91.04
15260;BME280;34462;51.368;12.364;2022-12-07T02:37:34;18237.06;;;-141.84;90.73
15260;BME280;34462;51.368;12.364;2022-12-07T02:40:09;18241.13;;;-141.84;90.41
15260;BME280;34462;51.368;12.364;2022-12-07T02:42:45;18245.19;;;-141.84;90.34
15260;BME280;34462;51.368;12.364;2022-12-07T02:45:21;18243.16;;;-141.84;90.17
15260;BME280;34462;51.368;12.364;2022-12-07T02:47:53;18218.75;;;-141.84;90.32
15260;BME280;34462;51.368;12.364;2022-12-07T02:50:26;18208.59;;;-141.84;89.73
15260;BME280;34462;51.368;12.364;2022-12-07T02:52:55;18265.50;;;-141.84;89.32
15260;BME280;34462;51.368;12.364;2022-12-07T02:55:29;18259.41;;;-141.84;88.66
15260;BME280;34462;51.368;12.364;2022-12-07T02:58:20;18261.44;;;-141.84;89.01
15260;BME280;34462;51.368;12.364;2022-12-07T03:01:06;18241.13;;;-141.84;89.16
15260;BME280;34462;51.368;12.364;2022-12-07T03:03:39;18261.44;;;-141.84;88.68
15260;BME280;34462;51.368;12.364;2022-12-07T03:06:20;18269.56;;;-141.84;88.33
15260;BME280;34462;51.368;12.364;2022-12-07T03:08:57;18220.78;;;-141.84;88.62
15260;BME280;34462;51.368;12.364;2022-12-07T03:11:39;18253.31;;;-141.84;89.00
15260;BME280;34462;51.368;12.364;2022-12-07T03:14:17;18259.41;;;-141.84;88.84
15260;BME280;34462;51.368;12.364;2022-12-07T03:16:56;18249.25;;;-141.84;89.06
15260;BME280;34462;51.368;12.364;2022-12-07T03:19:27;18298.00;;;-141.84;89.25
15260;BME280;34462;51.368;12.364;2022-12-07T03:21:58;18235.00;;;-141.84;89.08
15260;BME280;34462;51.368;12.364;2022-12-07T03:24:34;18257.38;;;-141.84;88.44
15260;BME280;34462;51.368;12.364;2022-12-07T03:27:08;18281.75;;;-141.84;87.63
15260;BME280;34462;51.368;12.364;2022-12-07T03:29:43;18287.84;;;-141.84;86.92
15260;BME280;34462;51.368;12.364;2022-12-07T03:32:20;18293.94;;;-141.84;87.08
15260;BME280;34462;51.368;12.364;2022-12-07T03:34:58;18257.38;;;-141.84;87.46
15260;BME280;34462;51.368;12.364;2022-12-07T03:37:35;18269.56;;;-141.84;87.62
15260;BME280;34462;51.368;12.364;2022-12-07T03:40:14;18300.03;;;-141.84;87.05
15260;BME280;34462;51.368;12.364;2022-12-07T03:42:46;18289.88;;;-141.84;86.89
15260;BME280;34462;51.368;12.364;2022-12-07T03:45:16;18273.63;;;-141.84;87.17
15260;BME280;34462;51.368;12.364;2022-12-07T03:47:53;18265.50;;;-141.84;87.31
15260;BME280;34462;51.368;12.364;2022-12-07T03:50:33;18283.78;;;-141.84;86.71
15260;BME280;34462;51.368;12.364;2022-12-07T03:53:11;18269.56;;;-141.84;86.12
15260;BME280;34462;51.368;12.364;2022-12-07T03:55:44;18310.19;;;-141.84;85.64
15260;BME280;34462;51.368;12.364;2022-12-07T03:58:18;18310.19;;;-141.84;85.85
15260;BME280;34462;51.368;12.364;2022-12-07T04:00:49;18304.09;;;-141.84;85.51
15260;BME280;34462;51.368;12.364;2022-12-07T04:03:18;18281.75;;;-141.84;85.22
15260;BME280;34462;51.368;12.364;2022-12-07T04:05:47;18298.00;;;-141.84;84.31
15260;BME280;34462;51.368;12.364;2022-12-07T04:08:15;18306.13;;;-141.84;83.80
15260;BME280;34462;51.368;12.364;2022-12-07T04:10:44;18316.28;;;-141.84;82.96
15260;BME280;34462;51.368;12.364;2022-12-07T04:13:12;18338.63;;;-141.84;82.99
15260;BME280;34462;51.368;12.364;2022-12-07T04:15:40;18336.59;;;-141.84;82.68
15260;BME280;34462;51.368;12.364;2022-12-07T04:18:08;18358.94;;;-141.84;82.46
15260;BME280;34462;51.368;12.364;2022-12-07T04:20:38;18369.09;;;-141.84;82.32
15260;BME280;34462;51.368;12.364;2022-12-07T04:23:06;18375.19;;;-141.84;81.75
15260;BME280;34462;51.368;12.364;2022-12-07T04:25:34;18365.03;;;-141.84;81.56
15260;BME280;34462;51.368;12.364;2022-12-07T04:28:02;18385.34;;;-141.84;81.52
15260;BME280;34462;51.368;12.364;2022-12-07T04:30:30;18397.53;;;-141.84;80.93
15260;BME280;34462;51.368;12.364;2022-12-07T04:32:58;18411.75;;;-141.84;80.94
15260;BME280;34462;51.368;12.364;2022-12-07T04:35:26;18387.38;;;-141.84;81.29
15260;BME280;34462;51.368;12.364;2022-12-07T04:37:56;18363.00;;;-141.84;81.43
15260;BME280;34462;51.368;12.364;2022-12-07T04:40:24;18407.69;;;-141.84;81.32
15260;BME280;34462;51.368;12.364;2022-12-07T04:42:52;18377.22;;;-141.84;81.46
15260;BME280;34462;51.368;12.364;2022-12-07T04:45:20;18358.94;;;-141.84;81.91
15260;BME280;34462;51.368;12.364;2022-12-07T04:47:48;18371.13;;;-141.84;82.05
15260;BME280;34462;51.368;12.364;2022-12-07T04:50:17;18381.28;;;-141.84;81.77
15260;BME280;34462;51.368;12.364;2022-12-07T04:52:45;18358.94;;;-141.84;81.30
15260;BME280;34462;51.368;12.364;2022-12-07T04:55:15;18379.25;;;-141.84;81.86
15260;BME280;34462;51.368;12.364;2022-12-07T04:57:43;18391.44;;;-141.84;81.91
15260;BME280;34462;51.368;12.364;2022-12-07T05:00:11;18385.34;;;-141.84;81.43
15260;BME280;34462;51.368;12.364;2022-12-07T05:02:39;18365.03;;;-141.84;81.77
15260;BME280;34462;51.368;12.364;2022-12-07T05:05:08;18407.69;;;-141.84;82.26
15260;BME280;34462;51.368;12.364;2022-12-07T05:07:36;18393.47;;;-141.84;81.87
15260;BME280;34462;51.368;12.364;2022-12-07T05:10:06;18387.38;;;-141.84;82.12
15260;BME280;34462;51.368;12.364;2022-12-07T05:12:36;18389.41;;;-141.84;81.87
15260;BME280;34462;51.368;12.364;2022-12-07T05:15:05;18421.91;;;-141.84;81.61
15260;BME280;34462;51.368;12.364;2022-12-07T05:17:33;18377.22;;;-141.84;81.47
15260;BME280;34462;51.368;12.364;2022-12-07T05:20:02;18385.34;;;-141.84;81.96
15260;BME280;34462;51.368;12.364;2022-12-07T05:22:31;18399.56;;;-141.84;82.13
15260;BME280;34462;51.368;12.364;2022-12-07T05:24:59;18358.94;;;-141.84;82.21
15260;BME280;34462;51.368;12.364;2022-12-07T05:27:27;18375.19;;;-141.84;81.97
15260;BME280;34462;51.368;12.364;2022-12-07T05:29:57;18411.75;;;-141.84;81.86
15260;BME280;34462;51.368;12.364;2022-12-07T05:32:25;18395.50;;;-141.84;81.76
15260;BME280;34462;51.368;12.364;2022-12-07T05:34:53;18391.44;;;-141.84;82.08
15260;BME280;34462;51.368;12.364;2022-12-07T05:37:21;18385.34;;;-141.84;82.48
15260;BME280;34462;51.368;12.364;2022-12-07T05:39:49;18395.50;;;-141.84;82.99
15260;BME280;34462;51.368;12.364;2022-12-07T05:42:18;18395.50;;;-141.84;83.13
15260;BME280;34462;51.368;12.364;2022-12-07T05:44:46;18375.19;;;-141.84;83.22
15260;BME280;34462;51.368;12.364;2022-12-07T05:47:16;18356.91;;;-141.84;83.37
15260;BME280;34462;51.368;12.364;2022-12-07T05:49:44;18373.16;;;-141.84;83.18
15260;BME280;34462;51.368;12.364;2022-12-07T05:52:12;18373.16;;;-141.84;82.70
15260;BME280;34462;51.368;12.364;2022-12-07T05:54:41;18395.50;;;-141.84;82.05
15260;BME280;34462;51.368;12.364;2022-12-07T05:57:09;18373.16;;;-141.84;81.95
15260;BME280;34462;51.368;12.364;2022-12-07T05:59:37;18413.78;;;-141.84;82.71
15260;BME280;34462;51.368;12.364;2022-12-07T06:02:08;18383.31;;;-141.84;82.88
15260;BME280;34462;51.368;12.364;2022-12-07T06:04:40;18419.88;;;-141.84;82.47
15260;BME280;34462;51.368;12.364;2022-12-07T06:07:10;18399.56;;;-141.84;82.74
15260;BME280;34462;51.368;12.364;2022-12-07T06:09:39;18395.50;;;-141.84;83.32
15260;BME280;34462;51.368;12.364;2022-12-07T06:12:09;18375.19;;;-141.84;83.46
15260;BME280;34462;51.368;12.364;2022-12-07T06:14:55;18383.31;;;-141.84;83.59
15260;BME280;34462;51.368;12.364;2022-12-07T06:17:23;18365.03;;;-141.84;83.41
15260;BME280;34462;51.368;12.364;2022-12-07T06:19:53;18393.47;;;-141.84;83.93
15260;BME280;34462;51.368;12.364;2022-12-07T06:22:21;18371.13;;;-141.84;84.08
15260;BME280;34462;51.368;12.364;2022-12-07T06:24:49;18395.50;;;-141.84;83.75
15260;BME280;34462;51.368;12.364;2022-12-07T06:27:17;18403.63;;;-141.84;83.65
15260;BME280;34462;51.368;12.364;2022-12-07T06:29:45;18367.06;;;-141.84;83.94
15260;BME280;34462;51.368;12.364;2022-12-07T06:32:14;18344.72;;;-141.84;84.55
15260;BME280;34462;51.368;12.364;2022-12-07T06:34:42;18373.16;;;-141.84;84.67
15260;BME280;34462;51.368;12.364;2022-12-07T06:37:11;18393.47;;;-141.84;85.06
15260;BME280;34462;51.368;12.364;2022-12-07T06:39:39;18346.75;;;-141.84;85.44
15260;BME280;34462;51.368;12.364;2022-12-07T06:42:08;18358.94;;;-141.84;85.86
15260;BME280;34462;51.368;12.364;2022-12-07T06:44:36;18346.75;;;-141.84;86.48
15260;BME280;34462;51.368;12.364;2022-12-07T06:47:04;18330.50;;;-141.84;86.52
15260;BME280;34462;51.368;12.364;2022-12-07T06:49:52;18340.66;;;-141.84;86.54
15260;BME280;34462;51.368;12.364;2022-12-07T06:52:21;18379.25;;;-141.84;86.74
15260;BME280;34462;51.368;12.364;2022-12-07T06:54:50;18326.44;;;-141.84;86.68
15260;BME280;34462;51.368;12.364;2022-12-07T06:57:18;18363.00;;;-141.84;86.51
15260;BME280;34462;51.368;12.364;2022-12-07T06:59:47;18367.06;;;-141.84;86.00
15260;BME280;34462;51.368;12.364;2022-12-07T07:02:15;18354.88;;;-141.84;85.85
15260;BME280;34462;51.368;12.364;2022-12-07T07:04:43;18391.44;;;-141.84;85.41
15260;BME280;34462;51.368;12.364;2022-12-07T07:07:11;18363.00;;;-141.84;84.83
15260;BME280;34462;51.368;12.364;2022-12-07T07:09:41;18385.34;;;-141.84;84.11
15260;BME280;34462;51.368;12.364;2022-12-07T07:12:09;18387.38;;;-141.84;84.47
15260;BME280;34462;51.368;12.364;2022-12-07T07:14:37;18332.53;;;-141.84;84.62
15260;BME280;34462;51.368;12.364;2022-12-07T07:17:05;18383.31;;;-141.84;84.21
15260;BME280;34462;51.368;12.364;2022-12-07T07:19:33;18391.44;;;-141.84;84.27
15260;BME280;34462;51.368;12.364;2022-12-07T07:22:02;18391.44;;;-141.84;84.57
15260;BME280;34462;51.368;12.364;2022-12-07T07:24:30;18371.13;;;-141.84;85.03
15260;BME280;34462;51.368;12.364;2022-12-07T07:27:00;18393.47;;;-141.84;84.94
15260;BME280;34462;51.368;12.364;2022-12-07T07:29:28;18393.47;;;-141.84;84.88
15260;BME280;34462;51.368;12.364;2022-12-07T07:31:56;18358.94;;;-141.84;85.16
15260;BME280;34462;51.368;12.364;2022-12-07T07:34:32;18375.19;;;-141.84;85.12
15260;BME280;34462;51.368;12.364;2022-12-07T07:37:00;18367.06;;;-141.84;85.35
15260;BME280;34462;51.368;12.364;2022-12-07T07:39:29;18354.88;;;-141.84;85.56
15260;BME280;34462;51.368;12.364;2022-12-07T07:41:58;18363.00;;;-141.84;85.07
15260;BME280;34462;51.368;12.364;2022-12-07T07:44:26;18379.25;;;-141.84;84.94
15260;BME280;34462;51.368;12.364;2022-12-07T07:47:01;18377.22;;;-141.84;84.89
15260;BME280;34462;51.368;12.364;2022-12-07T07:49:29;18379.25;;;-141.84;83.73
15260;BME280;34462;51.368;12.364;2022-12-07T07:51:57;18395.50;;;-141.84;83.38
15260;BME280;34462;51.368;12.364;2022-12-07T07:54:25;18381.28;;;-141.84;83.58
15260;BME280;34462;51.368;12.364;2022-12-07T07:56:53;18399.56;;;-141.84;84.30
15260;BME280;34462;51.368;12.364;2022-12-07T07:59:23;18375.19;;;-141.84;84.16
15260;BME280;34462;51.368;12.364;2022-12-07T08:01:51;18391.44;;;-141.84;84.03
15260;BME280;34462;51.368;12.364;2022-12-07T08:04:20;18369.09;;;-141.84;84.47
15260;BME280;34462;51.368;12.364;2022-12-07T08:06:48;18367.06;;;-141.84;84.49
15260;BME280;34462;51.368;12.364;2022-12-07T08:09:16;18379.25;;;-141.84;84.86
15260;BME280;34462;51.368;12.364;2022-12-07T08:11:44;18367.06;;;-141.84;85.07
15260;BME280;34462;51.368;12.364;2022-12-07T08:14:13;18391.44;;;-141.84;84.63
15260;BME280;34462;51.368;12.364;2022-12-07T08:16:42;18377.22;;;-141.84;85.00
15260;BME280;34462;51.368;12.364;2022-12-07T08:19:10;18379.25;;;-141.84;85.38
15260;BME280;34462;51.368;12.364;2022-12-07T08:21:38;18346.75;;;-141.84;86.02
15260;BME280;34462;51.368;12.364;2022-12-07T08:24:07;18350.81;;;-141.84;86.58
15260;BME280;34462;51.368;12.364;2022-12-07T08:26:35;18350.81;;;-141.84;85.88
15260;BME280;34462;51.368;12.364;2022-12-07T08:29:03;18367.06;;;-141.84;84.98
15260;BME280;34462;51.368;12.364;2022-12-07T08:31:32;18377.22;;;-141.84;84.78
15260;BME280;34462;51.368;12.364;2022-12-07T08:34:02;18399.56;;;-141.84;84.19
15260;BME280;34462;51.368;12.364;2022-12-07T08:36:30;18428.03;;;-141.84;82.39
15260;BME280;34462;51.368;12.364;2022-12-07T08:38:58;18411.75;;;-141.84;82.05
15260;BME280;34462;51.368;12.364;2022-12-07T08:41:46;18419.88;;;-141.84;81.28
15260;BME280;34462;51.368;12.364;2022-12-07T08:44:14;18430.06;;;-141.84;80.84
15260;BME280;34462;51.368;12.364;2022-12-07T08:46:49;18421.91;;;-141.84;81.13
15260;BME280;34462;51.368;12.364;2022-12-07T08:49:25;18436.16;;;-141.84;80.32
15260;BME280;34462;51.368;12.364;2022-12-07T08:51:55;18507.25;;;-141.84;79.65
15260;BME280;34462;51.368;12.364;2022-12-07T08:54:24;18466.63;;;-141.84;79.35
15260;BME280;34462;51.368;12.364;2022-12-07T08:56:55;18452.41;;;-141.84;79.03
15260;BME280;34462;51.368;12.364;2022-12-07T08:59:27;18438.19;;;-141.84;78.97
15260;BME280;34462;51.368;12.364;2022-12-07T09:01:56;18464.59;;;-141.84;79.21
15260;BME280;34462;51.368;12.364;2022-12-07T09:04:26;18464.59;;;-141.84;78.46
15260;BME280;34462;51.368;12.364;2022-12-07T09:06:55;18495.06;;;-141.84;78.81
15260;BME280;34462;51.368;12.364;2022-12-07T09:09:24;18497.09;;;-141.84;78.25
15260;BME280;34462;51.368;12.364;2022-12-07T09:11:52;18507.25;;;-141.84;79.03
15260;BME280;34462;51.368;12.364;2022-12-07T09:14:20;18476.78;;;-141.84;78.66
15260;BME280;34462;51.368;12.364;2022-12-07T09:16:48;18511.31;;;-141.84;77.38
15260;BME280;34462;51.368;12.364;2022-12-07T09:19:17;18493.03;;;-141.84;77.02
15260;BME280;34462;51.368;12.364;2022-12-07T09:21:46;18513.34;;;-141.84;76.85
15260;BME280;34462;51.368;12.364;2022-12-07T09:24:14;18547.88;;;-141.84;76.21
15260;BME280;34462;51.368;12.364;2022-12-07T09:26:42;18525.53;;;-141.84;77.02
15260;BME280;34462;51.368;12.364;2022-12-07T09:29:11;18531.63;;;-141.84;76.83
15260;BME280;34462;51.368;12.364;2022-12-07T09:31:40;18511.31;;;-141.84;76.77
15260;BME280;34462;51.368;12.364;2022-12-07T09:34:08;18517.41;;;-141.84;77.46
15260;BME280;34462;51.368;12.364;2022-12-07T09:36:36;18547.88;;;-141.84;77.28
15260;BME280;34462;51.368;12.364;2022-12-07T09:39:06;18515.38;;;-141.84;77.60
15260;BME280;34462;51.368;12.364;2022-12-07T09:41:38;18507.25;;;-141.84;78.61
15260;BME280;34462;51.368;12.364;2022-12-07T09:44:12;18513.34;;;-141.84;78.85
15260;BME280;34462;51.368;12.364;2022-12-07T09:46:43;18484.91;;;-141.84;79.33
15260;BME280;34462;51.368;12.364;2022-12-07T09:49:17;18454.44;;;-141.84;79.83
15260;BME280;34462;51.368;12.364;2022-12-07T09:51:47;18458.50;;;-141.84;79.91
15260;BME280;34462;51.368;12.364;2022-12-07T09:54:17;18470.69;;;-141.84;80.39
15260;BME280;34462;51.368;12.364;2022-12-07T09:56:45;18442.25;;;-141.84;81.36
15260;BME280;34462;51.368;12.364;2022-12-07T09:59:18;18460.53;;;-141.84;82.01
15260;BME280;34462;51.368;12.364;2022-12-07T10:01:49;18460.53;;;-141.84;82.00
15260;BME280;34462;51.368;12.364;2022-12-07T10:04:21;18466.63;;;-141.84;82.13
15260;BME280;34462;51.368;12.364;2022-12-07T10:06:50;18466.63;;;-141.84;81.72
15260;BME280;34462;51.368;12.364;2022-12-07T10:09:22;18454.44;;;-141.84;81.98
15260;BME280;34462;51.368;12.364;2022-12-07T10:12:03;18446.31;;;-141.84;82.38
15260;BME280;34462;51.368;12.364;2022-12-07T10:14:34;18476.78;;;-141.84;81.57
15260;BME280;34462;51.368;12.364;2022-12-07T10:17:36;18474.75;;;-141.84;81.01
15260;BME280;34462;51.368;12.364;2022-12-07T10:20:21;18482.88;;;-141.84;81.25
15260;BME280;34462;51.368;12.364;2022-12-07T10:23:00;18525.53;;;-141.84;80.83
15260;BME280;34462;51.368;12.364;2022-12-07T10:25:33;18515.38;;;-141.84;79.76
15260;BME280;34462;51.368;12.364;2022-12-07T10:28:18;18517.41;;;-141.84;79.39
15260;BME280;34462;51.368;12.364;2022-12-07T10:30:57;18525.53;;;-141.84;79.19
15260;BME280;34462;51.368;12.364;2022-12-07T10:33:33;18533.66;;;-141.84;78.63
15260;BME280;34462;51.368;12.364;2022-12-07T10:36:19;18553.97;;;-141.84;77.21
15260;BME280;34462;51.368;12.364;2022-12-07T10:38:49;18566.16;;;-141.84;76.86
15260;BME280;34462;51.368;12.364;2022-12-07T10:41:20;18558.03;;;-141.84;76.73
15260;BME280;34462;51.368;12.364;2022-12-07T10:43:54;18580.41;;;-141.84;76.78
15260;BME280;34462;51.368;12.364;2022-12-07T10:47:01;18602.75;;;-141.84;75.14
15260;BME280;34462;51.368;12.364;2022-12-07T10:50:14;18562.09;;;-141.84;75.96
15260;BME280;34462;51.368;12.364;2022-12-07T10:53:30;18576.31;;;-141.84;76.03
15260;BME280;34462;51.368;12.364;2022-12-07T10:56:27;18558.03;;;-141.84;75.67
15260;BME280;34462;51.368;12.364;2022-12-07T10:59:24;18592.59;;;-141.84;75.62
15260;BME280;34462;51.368;12.364;2022-12-07T11:02:17;18590.56;;;-141.84;75.90
15260;BME280;34462;51.368;12.364;2022-12-07T11:05:04;18592.59;;;-141.84;76.02
15260;BME280;34462;51.368;12.364;2022-12-07T11:07:47;18635.25;;;-141.84;75.55
15260;BME280;34462;51.368;12.364;2022-12-07T11:10:30;18588.53;;;-141.84;75.66
15260;BME280;34462;51.368;12.364;2022-12-07T11:13:23;18598.69;;;-141.84;75.24
15260;BME280;34462;51.368;12.364;2022-12-07T11:16:19;18639.31;;;-141.84;74.77
15260;BME280;34462;51.368;12.364;2022-12-07T11:19:03;18610.88;;;-141.84;74.97
15260;BME280;34462;51.368;12.364;2022-12-07T11:21:45;18578.38;;;-141.84;75.88
15260;BME280;34462;51.368;12.364;2022-12-07T11:24:19;18582.44;;;-141.84;76.93
15260;BME280;34462;51.368;12.364;2022-12-07T11:27:06;18562.09;;;-141.84;78.41
15260;BME280;34462;51.368;12.364;2022-12-07T11:29:55;18517.41;;;-141.84;79.60
15260;BME280;34462;51.368;12.364;2022-12-07T11:32:45;18503.19;;;-141.84;80.42
15260;BME280;34462;51.368;12.364;2022-12-07T11:35:28;18501.16;;;-141.84;80.75
15260;BME280;34462;51.368;12.364;2022-12-07T11:38:08;18474.75;;;-141.84;81.47
15260;BME280;34462;51.368;12.364;2022-12-07T11:40:43;18478.81;;;-141.84;81.96
15260;BME280;34462;51.368;12.364;2022-12-07T11:43:21;18480.84;;;-141.84;82.81
15260;BME280;34462;51.368;12.364;2022-12-07T11:45:59;18491.00;;;-141.84;82.50
15260;BME280;34462;51.368;12.364;2022-12-07T11:48:35;18476.78;;;-141.84;82.83
15260;BME280;34462;51.368;12.364;2022-12-07T11:51:10;18505.22;;;-141.84;82.39
15260;BME280;34462;51.368;12.364;2022-12-07T11:53:44;18501.16;;;-141.84;82.99
15260;BME280;34462;51.368;12.364;2022-12-07T11:56:17;18484.91;;;-141.84;83.19
15260;BME280;34462;51.368;12.364;2022-12-07T11:58:52;18468.66;;;-141.84;83.68
15260;BME280;34462;51.368;12.364;2022-12-07T12:01:37;18488.97;;;-141.84;84.18
15260;BME280;34462;51.368;12.364;2022-12-07T12:04:26;18454.44;;;-141.84;84.30
15260;BME280;34462;51.368;12.364;2022-12-07T12:06:56;18484.91;;;-141.84;83.35
15260;BME280;34462;51.368;12.364;2022-12-07T12:09:51;18491.00;;;-141.84;83.36
15260;BME280;34462;51.368;12.364;2022-12-07T12:12:41;18476.78;;;-141.84;83.33
15260;BME280;34462;51.368;12.364;2022-12-07T12:15:51;18462.56;;;-141.84;83.20
15260;BME280;34462;51.368;12.364;2022-12-07T12:19:00;18448.34;;;-141.84;83.59
15260;BME280;34462;51.368;12.364;2022-12-07T12:21:33;18523.50;;;-141.84;81.61
15260;BME280;34462;51.368;12.364;2022-12-07T12:24:10;18491.00;;;-141.84;82.03
15260;BME280;34462;51.368;12.364;2022-12-07T12:26:50;18480.84;;;-141.84;82.30
15260;BME280;34462;51.368;12.364;2022-12-07T12:29:26;18497.09;;;-141.84;82.25
15260;BME280;34462;51.368;12.364;2022-12-07T12:32:18;18507.25;;;-141.84;82.01
15260;BME280;34462;51.368;12.364;2022-12-07T12:37:47;18521.47;;;-141.84;81.36
15260;BME280;34462;51.368;12.364;2022-12-07T12:40:41;18521.47;;;-141.84;80.81
15260;BME280;34462;51.368;12.364;2022-12-07T12:43:49;18560.06;;;-141.84;79.56
15260;BME280;34462;51.368;12.364;2022-12-07T12:46:52;18525.53;;;-141.84;80.00
15260;BME280;34462;51.368;12.364;2022-12-07T12:50:20;18525.53;;;-141.84;78.88
15260;BME280;34462;51.368;12.364;2022-12-07T12:53:01;18537.72;;;-141.84;79.03
15260;BME280;34462;51.368;12.364;2022-12-07T12:56:26;18556.00;;;-141.84;77.72
15260;BME280;34462;51.368;12.364;2022-12-07T12:59:28;18568.19;;;-141.84;76.64
15260;BME280;34462;51.368;12.364;2022-12-07T13:02:16;18564.13;;;-141.84;77.16
15260;BME280;34462;51.368;12.364;2022-12-07T13:04:54;18582.44;;;-141.84;77.21
15260;BME280;34462;51.368;12.364;2022-12-07T13:08:00;18574.28;;;-141.84;75.33
15260;BME280;34462;51.368;12.364;2022-12-07T13:10:38;18610.88;;;-141.84;75.19